Aeroboteco Virtual Airlines! Uma nuvem a frente.



 INFORMAÇÕES METEOROLÓGICAS
METAR FOR LEIB
ADDS - METARS form results

(0306 UTC 27 May 2019)
Data provider http://aviationweather.gov/metar/data/
 
METAR text: LEIB 270300Z VRB02KT CAVOK 16/15 Q1013 NOSIG
Conditions at: LEIB (IBIZA/ES CODOLA , ES) observed 0300 UTC 27 May 2019
Temperature: 16.0°C (61°F)
Dewpoint: 15.0°C (59°F) [RH = 94%]
Pressure (altimeter): 29.91 inches Hg (1013.0 mb)
Winds: variable direction winds at 2 MPH (2 knots; 1.0 m/s)
Visibility: 6 or more miles (10+ km)
Ceiling: ceiling and visibility are OK
Clouds: unknown
Weather: no significant weather observed at this time

METAR text: LEIB 270230Z 27004KT 230V340 CAVOK 17/15 Q1013 NOSIG
Conditions at: LEIB (IBIZA/ES CODOLA , ES) observed 0230 UTC 27 May 2019
Temperature: 17.0°C (63°F)
Dewpoint: 15.0°C (59°F) [RH = 88%]
Pressure (altimeter): 29.91 inches Hg (1013.0 mb)
Winds: from the W (270 degrees) at 5 MPH (4 knots; 2.1 m/s)
Visibility: 6 or more miles (10+ km)
Ceiling: ceiling and visibility are OK
Clouds: unknown
Weather: no significant weather observed at this time

Forecast for: LEIB (IBIZA/ES CODOLA , ES)
Text: TAF LEIB 270200Z 2703/2803 28006KT CAVOK TX23/2712Z TN14/2706Z
Forecast period: 0300 to 1000 UTC 27 May 2019
Forecast type: FROM: standard forecast or significant change
Winds: from the W (280 degrees) at 7 MPH (6 knots; 3.1 m/s)
Visibility: 6 or more miles 10+ km)
Ceiling: unknown
Clouds: missing
Weather: no significant weather forecast for this period
Text: BECMG 2710/2712 18010KT
Forecast period: 1000 to 2200 UTC 27 May 2019
Forecast type: BECOMING: Conditions expected to become as follows by 1200 UTC 27 May 2019
Winds: from the S (180 degrees) at 12 MPH (10 knots; 5.1 m/s)
Visibility: 6 or more miles 10+ km)
Ceiling: unknown
Clouds: missing
Weather: no significant weather forecast for this period
Text: BECMG 2722/2724 01004KT
Forecast period: 2200 UTC 27 May 2019 to 0300 UTC 28 May 2019
Forecast type: BECOMING: Conditions expected to become as follows by 0000 UTC 28 May 2019
Winds: from the N (10 degrees) at 5 MPH (4 knots; 2.1 m/s)
Visibility: 6 or more miles 10+ km)
Ceiling: unknown
Clouds: missing
Weather: no significant weather forecast for this period

 MAPA DO AEROPORTO

 INFORMAÇÕES DA PISTA
Pista 06 Tamanho da pista 9186 ft Largura da pista 148 ft
Elevação da pista 13 ft Ranhura da pista 0 ft Proa da pista 62
Pista 24 Tamanho da pista 9186 ft Largura da pista 148 ft
Elevação da pista 16 ft Ranhura da pista 0 ft Proa da pista 242

 FREQUÊNCIAS DO AEROPORTO
Tipo APP Nome PALMA APP Frequência 118.125 MHZ
Tipo APP Nome APP Frequência 119.8 MHZ
Tipo ATIS Nome ATIS Frequência 117.8 MHZ
Tipo GND Nome GND Frequência 121.8 MHZ
Tipo TWR Nome TWR Frequência 118.5 MHZ

 AUXÍLIOS DE NAVEGAÇÃO PRÓXIMOS AO AEROPORTO
Tipo VOR-DME Nome Ibiza Frequência 117800 KHZ
Tipo NDB Nome Ibiza Frequência 394 KHZ